Time;durP1;ratioP1;P1;durP2;ratioP2;P2;SDS_P1;SDS_P2;PMS_P1;PMS_P2;Temp;Humidity;BMP_temperature;BMP_pressure;BME280_temperature;BME280_humidity;BME280_pressure;Samples;Min_cycle;Max_cycle;Signal;HPM_P1;HPM_P2
2022/04/28 00:01:02;;;;;;;2.90;1.40;;;;;;;4.67;41.28;99856.63;5037375;28;20077;-54
2022/04/28 00:03:33;;;;;;;2.95;1.85;;;;;;;4.88;43.80;99849.72;5039550;28;20448;-56
2022/04/28 00:06:03;;;;;;;2.90;1.45;;;;;;;5.02;42.57;99860.97;5039361;28;20053;-55
2022/04/28 00:08:34;;;;;;;4.00;2.03;;;;;;;5.29;44.07;99864.38;5039572;28;20053;-56
2022/04/28 00:11:05;;;;;;;3.97;1.80;;;;;;;5.48;42.79;99850.50;5031986;28;20059;-56
2022/04/28 00:13:35;;;;;;;5.45;1.90;;;;;;;5.13;41.75;99854.03;5026144;28;20071;-57
2022/04/28 00:16:08;;;;;;;3.65;1.80;;;;;;;5.19;43.14;99861.81;5026568;28;20117;-54
2022/04/28 00:18:38;;;;;;;6.53;2.10;;;;;;;5.19;44.19;99887.72;5025725;28;20057;-55
2022/04/28 00:21:09;;;;;;;5.13;2.03;;;;;;;5.24;42.05;99858.31;5026379;28;20064;-56
2022/04/28 00:23:39;;;;;;;4.50;2.10;;;;;;;5.22;41.25;99873.00;5026128;28;20099;-54
2022/04/28 00:26:10;;;;;;;3.38;1.50;;;;;;;5.18;41.41;99847.09;5025320;28;20050;-55
2022/04/28 00:28:41;;;;;;;1.98;1.58;;;;;;;5.17;40.39;99886.84;5025702;28;20053;-57
2022/04/28 00:31:13;;;;;;;8.70;2.10;;;;;;;5.38;40.93;99900.63;5026046;28;20076;-51
2022/04/28 00:33:44;;;;;;;2.33;1.52;;;;;;;5.45;41.10;99897.19;5026338;28;20073;-55
2022/04/28 00:36:15;;;;;;;1.98;1.60;;;;;;;5.33;39.37;99897.19;5025716;28;20049;-53
2022/04/28 00:38:45;;;;;;;3.15;1.50;;;;;;;5.47;40.40;99905.81;5025390;28;20391;-55
2022/04/28 00:41:16;;;;;;;4.32;2.10;;;;;;;5.62;42.20;99910.97;5025453;28;20339;-56
2022/04/28 00:43:51;;;;;;;2.92;1.60;;;;;;;5.97;42.96;99902.25;5025570;28;20333;-55
2022/04/28 00:46:24;;;;;;;3.05;1.70;;;;;;;5.75;40.95;99905.75;5025680;28;20061;-54
2022/04/28 00:51:40;;;;;;;2.30;1.67;;;;;;;5.22;40.31;99917.94;4997694;28;20106;-55
2022/04/28 00:54:11;;;;;;;2.83;1.80;;;;;;;5.37;40.62;99924.84;5025142;28;20088;-55
2022/04/28 00:56:42;;;;;;;3.05;1.60;;;;;;;5.45;40.18;99892.00;5025065;28;20108;-53
2022/04/28 00:59:13;;;;;;;2.75;1.70;;;;;;;4.93;38.43;99829.88;5025211;28;20088;-55
2022/04/28 01:01:46;;;;;;;1.60;1.40;;;;;;;5.41;39.37;99921.34;5024759;28;20561;-55
2022/04/28 01:04:17;;;;;;;5.97;2.13;;;;;;;5.47;39.96;99916.19;5025320;28;20244;-54
2022/04/28 01:06:48;;;;;;;2.75;1.50;;;;;;;5.67;40.13;99923.06;5024666;28;20049;-55
2022/04/28 01:09:19;;;;;;;3.33;1.65;;;;;;;5.66;40.31;99936.88;5024859;28;20115;-55
2022/04/28 01:11:50;;;;;;;4.75;2.25;;;;;;;5.85;39.49;99933.38;5025094;28;20038;-53
2022/04/28 01:14:20;;;;;;;2.85;1.55;;;;;;;5.93;38.20;99931.63;5024814;28;20345;-55
2022/04/28 01:16:52;;;;;;;4.05;2.03;;;;;;;5.90;39.76;99947.19;5025154;28;20510;-55
2022/04/28 01:19:23;;;;;;;3.30;1.70;;;;;;;5.96;39.79;99944.59;5024662;28;20451;-55
2022/04/28 01:21:57;;;;;;;5.43;1.80;;;;;;;6.21;38.29;99967.88;5024616;28;20124;-55
2022/04/28 01:24:27;;;;;;;3.70;1.85;;;;;;;5.95;38.11;99948.09;5024527;28;20049;-56
2022/04/28 01:27:00;;;;;;;2.40;1.70;;;;;;;5.32;39.03;99895.47;5025519;28;20160;-55
2022/04/28 01:29:34;;;;;;;7.97;1.90;;;;;;;5.85;39.98;99946.34;5024408;28;20058;-55
2022/04/28 01:32:05;;;;;;;4.82;1.80;;;;;;;6.24;39.10;99983.44;5023824;28;20077;-55
2022/04/28 01:34:36;;;;;;;3.05;1.60;;;;;;;6.23;38.76;99992.09;5024848;28;20065;-55
2022/04/28 01:37:09;;;;;;;3.38;1.88;;;;;;;6.27;39.88;99996.44;5024462;28;20116;-55
2022/04/28 01:39:39;;;;;;;3.75;1.60;;;;;;;6.56;41.61;100011.00;5024108;28;20061;-54
2022/04/28 01:42:10;;;;;;;3.28;1.85;;;;;;;6.30;39.23;99987.78;5024278;28;20225;-55
2022/04/28 01:44:41;;;;;;;2.92;1.85;;;;;;;6.29;39.35;99997.28;5024314;28;20041;-54
2022/04/28 01:47:12;;;;;;;4.13;1.70;;;;;;;6.50;37.38;99985.94;5031364;28;20053;-54
2022/04/28 01:49:42;;;;;;;3.85;1.90;;;;;;;6.63;40.17;100004.94;5036772;28;20064;-55
2022/04/28 01:55:13;;;;;;;2.65;1.70;;;;;;;6.90;39.33;100002.19;4995539;28;20447;-55
2022/04/28 01:57:45;;;;;;;15.25;2.22;;;;;;;7.13;39.28;100003.78;5016559;28;20080;-55
2022/04/28 02:00:17;;;;;;;5.15;1.90;;;;;;;7.13;37.70;100007.25;5036813;28;20103;-54
2022/04/28 02:02:48;;;;;;;5.65;2.55;;;;;;;6.85;38.43;99988.38;5037219;28;20080;-55
2022/04/28 02:05:19;;;;;;;3.22;1.80;;;;;;;6.44;38.99;100023.19;5037360;28;20052;-55
2022/04/28 02:07:51;;;;;;;2.67;1.75;;;;;;;6.60;38.29;99997.16;5037682;28;20065;-54
2022/04/28 02:10:22;;;;;;;4.47;1.70;;;;;;;6.34;38.92;99972.19;5037565;28;20049;-53
2022/04/28 02:12:55;;;;;;;22.58;2.25;;;;;;;6.70;39.25;100024.81;5037369;28;20141;-54
2022/04/28 02:15:25;;;;;;;9.63;1.83;;;;;;;6.60;37.76;100023.97;5037217;28;20103;-54
2022/04/28 02:17:56;;;;;;;2.90;1.85;;;;;;;6.69;38.58;100023.09;5036980;28;20049;-55
2022/04/28 02:20:27;;;;;;;5.88;2.08;;;;;;;6.69;38.39;100029.16;5036975;28;20252;-54
2022/04/28 02:23:00;;;;;;;2.45;1.55;;;;;;;6.71;36.71;100005.75;5036991;28;20221;-54
2022/04/28 02:25:30;;;;;;;4.22;1.80;;;;;;;6.62;37.67;100003.22;5036937;28;20092;-55
2022/04/28 02:28:01;;;;;;;3.03;1.60;;;;;;;6.66;38.11;100038.66;5037114;28;20378;-54
2022/04/28 02:30:32;;;;;;;2.22;1.50;;;;;;;6.86;38.26;100039.47;5036928;28;20046;-56
2022/04/28 02:33:11;;;;;;;6.78;2.00;;;;;;;6.94;38.14;100028.13;5036768;28;20124;-55
2022/04/28 02:35:42;;;;;;;4.80;2.03;;;;;;;6.84;38.67;100025.63;5036891;28;20231;-56
2022/04/28 02:38:15;;;;;;;2.75;1.80;;;;;;;6.85;38.05;100029.94;5036958;28;20096;-54
2022/04/28 02:40:45;;;;;;;3.08;1.60;;;;;;;6.67;36.67;100025.69;5036987;28;20053;-54
2022/04/28 02:43:16;;;;;;;11.35;2.03;;;;;;;6.97;39.92;100033.34;5036870;28;20060;-54
2022/04/28 02:45:48;;;;;;;2.20;1.70;;;;;;;7.40;37.87;100038.28;5036915;28;20114;-54
2022/04/28 02:48:19;;;;;;;2.97;1.60;;;;;;;7.05;35.03;100037.59;5036802;28;20060;-56
2022/04/28 02:50:50;;;;;;;4.00;1.83;;;;;;;6.82;37.16;100040.34;5037025;28;20072;-54
2022/04/28 02:53:22;;;;;;;5.90;1.45;;;;;;;6.88;38.95;100058.47;5036706;28;20065;-55
2022/04/28 02:55:52;;;;;;;2.53;1.60;;;;;;;7.07;36.94;100040.22;5036843;28;20049;-55
2022/04/28 02:58:23;;;;;;;3.72;2.10;;;;;;;6.85;37.07;100045.50;5036963;28;20108;-56
2022/04/28 03:00:54;;;;;;;2.78;1.83;;;;;;;6.97;38.26;100046.34;5034188;28;20080;-55
2022/04/28 03:03:24;;;;;;;2.83;1.52;;;;;;;7.04;36.00;100041.09;5036696;28;20057;-55
2022/04/28 03:11:31;;;;;;;3.67;1.65;;;;;;;7.02;34.83;99990.88;5025479;28;20045;-55
2022/04/28 03:14:02;;;;;;;4.57;2.00;;;;;;;6.84;37.01;100038.59;5036598;28;20053;-55
2022/04/28 03:16:32;;;;;;;4.95;1.70;;;;;;;7.40;36.82;100048.66;5036489;28;20065;-55
2022/04/28 03:19:03;;;;;;;2.47;1.80;;;;;;;7.84;37.66;100039.63;5036524;28;20065;-55
2022/04/28 03:21:34;;;;;;;1.95;1.50;;;;;;;7.83;34.79;100027.53;5034640;28;20057;-54
2022/04/28 03:24:07;;;;;;;4.05;1.50;;;;;;;7.47;34.90;100056.41;5022860;28;20057;-55
2022/04/28 03:26:39;;;;;;;3.40;1.88;;;;;;;7.31;36.63;100081.66;5024138;28;20152;-55
2022/04/28 03:29:09;;;;;;;4.60;1.42;;;;;;;7.45;35.97;100072.91;5023359;28;20054;-55
2022/04/28 03:31:40;;;;;;;6.18;1.85;;;;;;;7.39;36.52;100079.00;5025265;28;20113;-58
2022/04/28 03:34:11;;;;;;;6.95;2.50;;;;;;;7.29;36.44;100078.19;5026947;28;20340;-55
2022/04/28 03:36:53;;;;;;;4.93;1.58;;;;;;;7.28;36.29;100081.66;5026587;28;20190;-54
2022/04/28 03:39:26;;;;;;;2.53;1.42;;;;;;;7.27;36.53;100085.13;5027045;28;20061;-56
2022/04/28 03:41:57;;;;;;;4.90;1.52;;;;;;;7.13;35.73;100077.41;5026917;28;20054;-54
2022/04/28 03:44:28;;;;;;;3.53;1.58;;;;;;;6.91;35.66;100080.97;5026777;28;20159;-55
2022/04/28 03:46:59;;;;;;;3.05;1.48;;;;;;;7.25;37.27;100086.88;5026737;28;20297;-55
2022/04/28 03:49:30;;;;;;;5.78;1.73;;;;;;;7.49;38.05;100085.88;5026726;28;20256;-55
2022/04/28 03:52:01;;;;;;;14.30;1.80;;;;;;;7.49;37.33;100087.59;5026393;28;20095;-56
2022/04/28 03:54:33;;;;;;;28.83;3.10;;;;;;;7.61;36.23;100095.28;5026226;28;20053;-54
2022/04/28 03:57:04;;;;;;;3.97;1.70;;;;;;;7.40;37.12;100095.47;5026494;28;20120;-55
2022/04/28 03:59:35;;;;;;;8.02;2.25;;;;;;;7.39;37.41;100088.50;5026144;28;20241;-55
2022/04/28 04:02:06;;;;;;;4.45;1.77;;;;;;;7.41;35.71;100086.78;5026384;28;20265;-55
2022/04/28 04:04:37;;;;;;;1.95;1.45;;;;;;;7.32;35.52;100088.56;5026407;28;20563;-55
2022/04/28 04:07:09;;;;;;;7.38;1.70;;;;;;;7.37;37.30;100079.88;5026035;28;20053;-54
2022/04/28 04:09:42;;;;;;;3.17;1.80;;;;;;;8.00;39.42;100082.88;5025779;28;20081;-55
2022/04/28 04:12:12;;;;;;;5.20;1.70;;;;;;;8.29;35.31;100084.34;5025944;28;20053;-55
2022/04/28 04:14:43;;;;;;;6.15;1.95;;;;;;;8.46;35.68;100087.66;5026203;28;20134;-56
2022/04/28 04:17:14;;;;;;;6.72;1.40;;;;;;;8.44;34.85;100099.84;5026393;28;20547;-56
2022/04/28 04:19:45;;;;;;;4.60;1.63;;;;;;;8.08;35.16;100091.47;5025900;28;20060;-55
2022/04/28 04:22:15;;;;;;;5.38;1.77;;;;;;;8.12;36.27;100095.78;5025885;28;20053;-56
2022/04/28 04:24:48;;;;;;;11.13;2.20;;;;;;;8.37;35.31;100103.34;5025420;28;20096;-56
2022/04/28 04:27:20;;;;;;;7.93;2.05;;;;;;;8.38;34.39;100092.03;5025761;28;20336;-55
2022/04/28 04:29:51;;;;;;;4.70;1.70;;;;;;;7.97;34.99;100101.13;5025732;28;20053;-56
2022/04/28 04:32:25;;;;;;;4.45;1.65;;;;;;;8.14;36.05;100081.00;5025680;28;20076;-54
2022/04/28 04:34:56;;;;;;;10.13;1.90;;;;;;;8.51;36.24;100096.31;5025533;28;20112;-55
2022/04/28 04:37:28;;;;;;;3.25;1.90;;;;;;;8.67;35.20;100096.13;5025644;28;20054;-56
2022/04/28 04:40:01;;;;;;;10.38;1.80;;;;;;;8.10;32.90;99996.03;5025730;28;20361;-55
2022/04/28 04:42:31;;;;;;;4.93;1.75;;;;;;;8.67;35.60;100102.19;5025478;28;20117;-56
2022/04/28 04:45:02;;;;;;;7.88;1.45;;;;;;;8.66;35.78;100061.38;5026084;28;20053;-54
2022/04/28 04:47:33;;;;;;;4.50;1.65;;;;;;;8.73;35.40;100096.03;5026646;28;20084;-55
2022/04/28 04:50:04;;;;;;;12.68;1.77;;;;;;;8.48;35.38;100085.91;5026533;28;20148;-55
2022/04/28 04:52:35;;;;;;;6.72;1.58;;;;;;;8.28;31.89;100093.88;5025981;28;20121;-56
2022/04/28 04:55:08;;;;;;;2.55;1.52;;;;;;;8.16;32.29;100079.25;5025704;28;20232;-56
2022/04/28 04:57:40;;;;;;;5.90;1.60;;;;;;;8.14;35.04;100086.22;5025400;28;20073;-55
2022/04/28 05:00:12;;;;;;;36.80;3.05;;;;;;;8.31;35.19;100088.66;5024976;28;20116;-53
2022/04/28 05:02:42;;;;;;;2.08;1.40;;;;;;;8.20;34.82;100095.69;5024803;28;20076;-55
2022/04/28 05:05:13;;;;;;;4.45;1.58;;;;;;;8.25;34.75;100093.91;5025391;28;20061;-56
2022/04/28 05:07:44;;;;;;;3.58;1.50;;;;;;;8.34;35.85;100087.78;5025326;28;20056;-56
2022/04/28 05:10:16;;;;;;;14.20;2.20;;;;;;;8.48;35.72;100096.31;5024733;28;20049;-55
2022/04/28 05:12:47;;;;;;;7.10;2.40;;;;;;;8.61;36.18;100097.94;5025050;28;20154;-57
2022/04/28 05:15:18;;;;;;;8.27;1.60;;;;;;;8.76;35.18;100103.81;5024429;28;20057;-55
2022/04/28 05:17:48;;;;;;;2.83;1.52;;;;;;;8.54;34.65;100104.06;5025305;28;20050;-56
2022/04/28 05:20:19;;;;;;;2.78;1.58;;;;;;;8.43;33.91;100098.09;5026687;28;20348;-54
2022/04/28 05:22:50;;;;;;;7.85;2.35;;;;;;;8.62;35.29;100099.63;5025505;28;20053;-57
2022/04/28 05:25:22;;;;;;;6.07;1.50;;;;;;;8.69;35.84;100102.19;5024500;28;20061;-56
2022/04/28 05:27:52;;;;;;;2.50;1.70;;;;;;;8.73;33.63;100109.06;5024485;28;20117;-55
2022/04/28 05:30:24;;;;;;;20.00;2.47;;;;;;;8.67;34.72;100106.56;5024552;28;20060;-57
2022/04/28 05:32:55;;;;;;;1.75;1.35;;;;;;;8.57;33.55;100098.81;5024548;28;20292;-56
2022/04/28 05:35:25;;;;;;;3.75;1.50;;;;;;;8.29;33.46;100105.19;5024377;28;20058;-55
2022/04/28 05:37:57;;;;;;;13.88;2.22;;;;;;;8.02;32.82;100107.13;5024778;28;20109;-55
2022/04/28 05:40:31;;;;;;;6.43;2.17;;;;;;;8.14;33.82;100112.25;5005267;28;20337;-56
2022/04/28 05:45:51;;;;;;;4.70;1.50;;;;;;;8.45;34.26;100106.75;5005928;28;20428;-55
2022/04/28 05:48:22;;;;;;;39.08;2.78;;;;;;;8.44;34.22;100120.69;5004594;28;20069;-55
2022/04/28 05:50:53;;;;;;;2.92;1.48;;;;;;;8.46;33.08;100113.69;5004381;28;20069;-54
2022/04/28 05:53:24;;;;;;;29.90;3.35;;;;;;;8.28;31.43;100098.22;5003764;28;20062;-55
2022/04/28 05:55:56;;;;;;;4.93;1.38;;;;;;;8.31;33.21;100117.31;5004485;28;20073;-56
2022/04/28 05:58:27;;;;;;;13.15;1.88;;;;;;;8.19;33.48;100110.47;5004367;28;20054;-55
2022/04/28 06:00:58;;;;;;;2.08;1.27;;;;;;;8.28;34.29;100129.47;5004526;28;20157;-56
2022/04/28 06:03:29;;;;;;;19.92;2.22;;;;;;;8.30;33.17;100117.31;5004560;28;20050;-55
2022/04/28 06:06:00;;;;;;;18.88;2.30;;;;;;;8.28;33.94;100119.91;5004868;28;20060;-55
2022/04/28 06:08:30;;;;;;;7.32;1.90;;;;;;;8.26;34.78;100136.41;5004417;28;20149;-56
2022/04/28 06:11:03;;;;;;;7.75;1.75;;;;;;;8.33;34.80;100117.25;5004260;28;20088;-56
2022/04/28 06:13:33;;;;;;;29.73;3.30;;;;;;;8.36;34.43;100127.63;5004864;28;20076;-54
2022/04/28 06:16:04;;;;;;;7.43;1.90;;;;;;;8.33;33.58;100127.69;5004147;28;20042;-56
2022/04/28 06:18:35;;;;;;;15.43;1.88;;;;;;;8.20;33.24;100121.72;5004027;28;20060;-56
2022/04/28 06:21:06;;;;;;;10.73;3.83;;;;;;;8.33;34.14;100127.69;5003806;28;20429;-55
2022/04/28 06:23:37;;;;;;;11.52;1.77;;;;;;;8.29;33.62;100128.59;5005121;28;20068;-56
2022/04/28 06:26:09;;;;;;;10.10;2.28;;;;;;;8.42;35.46;100130.25;5004244;28;20054;-56
2022/04/28 06:28:40;;;;;;;2.10;1.55;;;;;;;8.62;34.18;100136.09;5004134;28;20093;-57
2022/04/28 06:31:10;;;;;;;9.18;1.60;;;;;;;8.53;35.03;100151.81;5004460;28;20398;-57
2022/04/28 06:33:42;;;;;;;6.93;1.33;;;;;;;8.59;36.48;100151.75;5003988;28;20121;-53
2022/04/28 06:36:13;;;;;;;12.18;1.65;;;;;;;8.50;35.55;100154.44;5003918;28;20121;-53
2022/04/28 06:38:46;;;;;;;11.23;1.60;;;;;;;8.34;34.92;100160.66;5003936;28;20068;-55
2022/04/28 06:41:18;;;;;;;8.52;1.55;;;;;;;8.18;34.27;100152.97;5004942;28;20060;-56
2022/04/28 06:43:49;;;;;;;19.50;2.40;;;;;;;8.16;34.74;100151.25;5004012;28;20089;-56
2022/04/28 06:46:19;;;;;;;4.10;1.35;;;;;;;8.23;36.05;100162.47;5005736;28;20077;-55
2022/04/28 06:48:50;;;;;;;7.22;1.73;;;;;;;8.27;35.67;100166.78;5004953;28;20121;-56
2022/04/28 06:51:21;;;;;;;3.80;1.60;;;;;;;8.36;33.93;100174.50;5003676;28;20321;-55
2022/04/28 06:53:51;;;;;;;12.05;1.92;;;;;;;8.26;34.31;100171.13;5003651;28;20084;-55
2022/04/28 06:56:24;;;;;;;4.28;1.33;;;;;;;8.05;33.11;100161.75;5004478;28;20393;-55
2022/04/28 06:58:55;;;;;;;4.10;1.20;;;;;;;7.92;35.07;100167.94;5005453;28;20089;-56
2022/04/28 07:01:25;;;;;;;7.18;1.52;;;;;;;7.89;35.65;100171.41;5004057;28;20121;-55
2022/04/28 07:04:04;;;;;;;3.90;1.38;;;;;;;7.98;35.70;100180.88;5003379;28;20085;-56
2022/04/28 07:06:35;;;;;;;15.02;2.70;;;;;;;8.28;36.12;100177.19;5005761;28;20081;-56
2022/04/28 07:09:06;;;;;;;9.23;1.55;;;;;;;8.39;35.78;100179.72;5007122;28;20042;-57
2022/04/28 07:11:38;;;;;;;3.22;1.58;;;;;;;8.45;36.54;100184.88;5007257;28;20196;-56
2022/04/28 07:14:09;;;;;;;9.77;1.95;;;;;;;8.47;35.44;100177.94;5009079;28;20046;-56
2022/04/28 07:16:39;;;;;;;1.95;1.23;;;;;;;8.33;33.81;100174.53;5007346;28;20080;-57
2022/04/28 07:19:10;;;;;;;5.28;1.40;;;;;;;8.04;34.72;100183.47;5007988;28;20340;-56
2022/04/28 07:21:41;;;;;;;5.38;1.42;;;;;;;8.04;35.18;100183.47;5008225;28;20053;-57
2022/04/28 07:24:11;;;;;;;14.07;3.08;;;;;;;8.19;36.74;100183.34;5007255;28;20081;-56
2022/04/28 07:26:44;;;;;;;6.03;1.73;;;;;;;8.30;36.49;100190.19;5007456;28;20050;-56
2022/04/28 07:29:14;;;;;;;6.00;1.60;;;;;;;8.28;36.98;100202.34;5007384;28;20050;-57
2022/04/28 07:31:45;;;;;;;7.18;1.60;;;;;;;8.18;36.12;100186.78;5007425;28;20056;-56
2022/04/28 07:34:16;;;;;;;10.02;1.77;;;;;;;8.05;35.74;100205.13;5006735;28;20066;-56
2022/04/28 07:36:47;;;;;;;17.63;1.88;;;;;;;7.89;35.71;100204.38;5006571;28;20061;-57
2022/04/28 07:39:18;;;;;;;8.77;1.55;;;;;;;7.87;35.92;100200.94;5007936;28;20067;-56
2022/04/28 07:41:50;;;;;;;3.58;1.55;;;;;;;7.72;35.76;100192.34;5007750;28;20050;-55
2022/04/28 07:44:21;;;;;;;7.45;1.55;;;;;;;7.84;36.52;100200.91;5006777;28;20057;-56
2022/04/28 07:46:52;;;;;;;4.47;1.60;;;;;;;7.90;35.36;100200.91;5006618;28;20054;-56
2022/04/28 07:49:22;;;;;;;5.60;1.67;;;;;;;7.80;35.32;100201.84;5006648;28;20217;-55
2022/04/28 07:51:53;;;;;;;8.15;1.70;;;;;;;7.77;36.06;100194.91;5007046;28;20112;-57
2022/04/28 07:54:24;;;;;;;8.63;1.67;;;;;;;7.81;35.67;100195.75;5007057;28;20060;-57
2022/04/28 07:56:56;;;;;;;4.85;1.60;;;;;;;7.83;35.84;100196.59;5006867;28;20112;-57
2022/04/28 07:59:27;;;;;;;7.32;1.67;;;;;;;7.73;36.13;100196.66;5006795;28;20068;-57
2022/04/28 08:01:58;;;;;;;8.25;1.75;;;;;;;7.81;35.76;100196.59;5006535;28;20103;-57
2022/04/28 08:04:29;;;;;;;9.68;1.80;;;;;;;7.88;35.47;100197.44;5007199;28;20064;-57
2022/04/28 08:07:00;;;;;;;9.45;2.63;;;;;;;8.06;36.96;100194.69;5006797;28;20042;-57
2022/04/28 08:09:31;;;;;;;2.13;1.25;;;;;;;8.07;34.89;100187.78;5006591;28;20068;-57
2022/04/28 08:12:09;;;;;;;5.25;1.42;;;;;;;8.01;34.60;100193.88;5006278;28;20065;-57
2022/04/28 08:15:00;;;;;;;2.38;1.38;;;;;;;7.95;34.96;100188.72;5006229;28;20101;-57
2022/04/28 08:17:31;;;;;;;5.53;1.60;;;;;;;7.92;34.97;100189.59;5005727;28;20045;-57
2022/04/28 08:20:01;;;;;;;6.55;2.30;;;;;;;7.90;34.93;100190.50;5006068;28;20050;-57
2022/04/28 08:22:32;;;;;;;7.03;2.55;;;;;;;7.91;35.37;100198.28;5006629;28;21046;-57
2022/04/28 08:25:03;;;;;;;3.88;1.30;;;;;;;7.90;34.92;100206.97;5006523;28;20050;-57
2022/04/28 08:27:35;;;;;;;4.20;1.40;;;;;;;7.73;35.47;100194.03;5005897;28;20061;-57
2022/04/28 08:30:07;;;;;;;5.00;1.60;;;;;;;7.74;35.28;100197.53;5005941;28;20065;-56
2022/04/28 08:32:38;;;;;;;4.60;1.65;;;;;;;7.63;33.78;100181.97;5005953;28;20061;-57
2022/04/28 08:35:10;;;;;;;6.95;1.63;;;;;;;7.44;34.74;100180.34;5006204;28;20077;-56
2022/04/28 08:37:40;;;;;;;6.75;1.70;;;;;;;7.61;35.28;100204.50;5007065;28;20054;-57
2022/04/28 08:40:12;;;;;;;5.68;1.88;;;;;;;7.66;35.37;100202.78;5006213;28;20038;-56
2022/04/28 08:42:46;;;;;;;15.90;2.42;;;;;;;7.74;36.18;100215.75;5005338;28;20384;-57
2022/04/28 08:45:19;;;;;;;3.75;1.92;;;;;;;7.56;35.84;100169.88;5004341;28;20034;-57
2022/04/28 08:47:51;;;;;;;6.03;2.10;;;;;;;7.73;36.02;100207.06;5004795;28;20062;-57
2022/04/28 08:50:24;;;;;;;6.43;1.55;;;;;;;7.71;35.66;100206.22;5004620;28;20053;-57
2022/04/28 08:52:57;;;;;;;14.85;3.03;;;;;;;7.43;35.78;100194.22;5005914;28;20076;-57
2022/04/28 08:55:28;;;;;;;8.32;2.40;;;;;;;7.22;35.81;100206.44;5005809;28;20054;-57
2022/04/28 08:58:00;;;;;;;14.18;3.13;;;;;;;7.03;37.48;100213.41;5005154;28;20061;-57
2022/04/28 09:00:31;;;;;;;9.50;2.75;;;;;;;6.85;37.27;100216.94;5005360;28;20041;-56
2022/04/28 09:03:03;;;;;;;7.97;1.85;;;;;;;6.64;37.64;100211.75;5005357;28;20091;-57
2022/04/28 09:05:34;;;;;;;5.97;1.60;;;;;;;6.53;37.80;100223.88;5005965;28;20062;-57
2022/04/28 09:08:06;;;;;;;6.55;1.70;;;;;;;6.41;36.99;100225.59;5005090;28;20076;-56
2022/04/28 09:10:36;;;;;;;5.20;1.83;;;;;;;6.32;38.21;100225.63;5005200;28;20567;-57
2022/04/28 09:16:01;;;;;;;3.53;1.73;;;;;;;6.16;39.11;100240.31;5005403;28;20046;-56
2022/04/28 09:18:33;;;;;;;4.90;1.92;;;;;;;6.08;39.21;100235.97;5004816;28;20053;-56
2022/04/28 09:21:04;;;;;;;8.48;2.03;;;;;;;5.98;39.77;100235.97;5005147;28;20111;-56
2022/04/28 09:23:36;;;;;;;3.65;2.20;;;;;;;5.96;40.58;100237.69;5005068;28;20090;-57
2022/04/28 09:26:10;;;;;;;3.28;2.00;;;;;;;5.90;40.60;100241.97;5005143;28;20062;-56
2022/04/28 09:28:42;;;;;;;3.78;1.88;;;;;;;5.81;40.26;100242.81;5004213;28;20067;-57
2022/04/28 09:31:13;;;;;;;5.28;2.20;;;;;;;5.73;40.35;100250.56;5004834;28;20054;-57
2022/04/28 09:33:44;;;;;;;2.88;1.90;;;;;;;5.67;40.98;100250.56;5004840;28;20564;-57
2022/04/28 09:36:16;;;;;;;6.05;1.88;;;;;;;5.57;41.19;100260.03;5005363;28;20050;-56
2022/04/28 09:38:46;;;;;;;7.35;2.28;;;;;;;5.53;41.49;100258.25;5004895;28;20125;-57
2022/04/28 09:44:08;;;;;;;;;;;;;;;5.25;41.10;100248.66;5005371;28;20054;-56
2022/04/28 09:46:43;;;;;;;5.32;2.20;;;;;;;5.34;42.25;100277.16;5005177;28;19921;-57
2022/04/28 09:49:16;;;;;;;3.35;2.40;;;;;;;5.23;42.19;100279.72;5005455;28;20046;-56
2022/04/28 09:51:47;;;;;;;9.73;2.38;;;;;;;5.21;42.92;100290.94;5004803;28;20066;-57
2022/04/28 09:54:18;;;;;;;11.45;2.78;;;;;;;5.16;43.25;100299.53;5005863;28;20054;-56
2022/04/28 09:56:49;;;;;;;13.38;2.40;;;;;;;5.12;44.09;100297.78;5004524;28;20329;-57
2022/04/28 09:59:22;;;;;;;6.15;2.88;;;;;;;5.06;44.36;100297.75;5004201;28;20050;-57
2022/04/28 10:01:53;;;;;;;6.53;2.30;;;;;;;4.94;44.13;100297.66;5004496;28;20253;-57
2022/04/28 10:04:26;;;;;;;7.47;2.53;;;;;;;5.00;44.71;100313.25;5004254;28;20062;-55
2022/04/28 10:06:59;;;;;;;8.13;2.25;;;;;;;4.96;44.22;100321.84;5004645;28;20053;-57
2022/04/28 10:09:31;;;;;;;9.48;2.33;;;;;;;4.92;43.86;100330.47;5004348;28;20265;-56
2022/04/28 10:12:02;;;;;;;4.20;1.92;;;;;;;4.89;43.75;100320.06;5003996;28;20446;-56
2022/04/28 10:14:36;;;;;;;6.45;2.75;;;;;;;4.84;44.26;100316.56;5004263;28;20055;-56
2022/04/28 10:17:12;;;;;;;6.95;2.10;;;;;;;4.81;45.05;100325.19;5003917;28;20088;-56
2022/04/28 10:19:55;;;;;;;12.52;2.28;;;;;;;4.40;44.95;100273.09;5004846;28;20084;-57
2022/04/28 10:22:31;;;;;;;6.25;2.40;;;;;;;4.66;44.93;100323.31;5004098;28;20049;-56
2022/04/28 10:33:41;;;;;;;12.30;4.95;;;;;;;4.23;48.77;100353.97;5004548;28;20117;-56
2022/04/28 10:36:19;;;;;;;6.95;3.40;;;;;;;3.85;50.23;100354.41;5004080;28;20070;-56
2022/04/28 10:39:10;;;;;;;10.40;3.30;;;;;;;3.64;51.66;100377.38;5003760;28;20101;-55
2022/04/28 10:41:41;;;;;;;6.00;3.63;;;;;;;3.32;52.22;100388.13;5006967;28;20054;-56
2022/04/28 10:44:18;;;;;;;13.13;7.63;;;;;;;2.88;53.82;100387.41;5010023;28;20060;-56
2022/04/28 10:47:02;;;;;;;9.60;5.53;;;;;;;2.65;54.54;100397.34;5010061;28;20296;-56
2022/04/28 10:49:39;;;;;;;21.17;11.57;;;;;;;1.83;55.55;100297.00;5009946;28;20041;-55
2022/04/28 10:52:23;;;;;;;34.90;21.25;;;;;;;2.39;56.36;100408.03;5010063;28;20054;-56
2022/04/28 10:54:54;;;;;;;18.42;8.93;;;;;;;2.35;56.92;100407.13;5010143;28;20053;-56
2022/04/28 10:57:32;;;;;;;4.43;2.63;;;;;;;2.33;57.45;100418.25;5010163;28;20067;-57
2022/04/28 11:00:04;;;;;;;7.07;2.50;;;;;;;2.26;57.26;100413.81;5009600;28;20058;-57
2022/04/28 11:02:44;;;;;;;9.45;5.70;;;;;;;2.22;56.99;100415.47;5010471;28;20050;-56
2022/04/28 11:05:44;;;;;;;10.52;5.60;;;;;;;2.16;57.68;100416.19;5010198;28;20062;-56
2022/04/28 11:08:34;;;;;;;6.70;3.28;;;;;;;1.94;58.94;100419.16;5010000;28;20240;-56
2022/04/28 11:11:07;;;;;;;5.97;3.07;;;;;;;1.77;59.97;100420.50;5010016;28;20096;-55
2022/04/28 11:13:40;;;;;;;6.03;2.97;;;;;;;1.75;60.11;100417.03;5009976;28;20303;-57
2022/04/28 11:16:12;;;;;;;6.57;3.60;;;;;;;1.53;60.31;100406.25;5009857;28;20046;-55
2022/04/28 11:18:45;;;;;;;6.40;3.47;;;;;;;1.53;60.46;100420.84;5009755;28;20395;-56
2022/04/28 11:21:16;;;;;;;7.97;4.20;;;;;;;1.47;61.17;100411.25;5009856;28;20111;-56
2022/04/28 11:23:49;;;;;;;11.77;4.65;;;;;;;1.48;61.58;100415.59;5009878;28;20068;-56
2022/04/28 11:26:21;;;;;;;7.03;4.15;;;;;;;1.28;62.32;100410.84;5009772;28;20061;-56
2022/04/28 11:28:51;;;;;;;7.13;3.65;;;;;;;1.11;62.50;100412.16;5009864;28;20061;-56
2022/04/28 11:31:22;;;;;;;5.30;3.60;;;;;;;1.02;62.90;100411.91;5009562;28;20237;-56
2022/04/28 11:34:00;;;;;;;9.82;3.83;;;;;;;0.77;62.96;100411.28;5010145;28;20100;-56
2022/04/28 11:36:31;;;;;;;5.57;3.88;;;;;;;0.86;63.70;100426.97;5010269;28;20476;-56
2022/04/28 11:39:04;;;;;;;8.50;3.65;;;;;;;0.78;64.15;100420.78;5009823;28;20057;-55
2022/04/28 11:41:39;;;;;;;6.88;3.10;;;;;;;0.63;64.72;100422.94;5009809;28;20575;-56
2022/04/28 11:44:11;;;;;;;8.20;2.55;;;;;;;0.52;64.81;100424.34;5009656;28;20360;-56
2022/04/28 11:46:50;;;;;;;8.98;4.40;;;;;;;0.53;65.04;100432.13;5009735;28;20048;-56
2022/04/28 11:49:23;;;;;;;9.68;5.35;;;;;;;0.61;65.19;100427.19;5009905;28;20054;-56
2022/04/28 11:51:55;;;;;;;7.78;4.00;;;;;;;0.67;64.84;100429.03;5007385;28;20046;-55
2022/04/28 11:54:26;;;;;;;5.22;3.05;;;;;;;0.55;65.21;100434.72;5006713;28;20089;-56
2022/04/28 11:57:09;;;;;;;5.32;3.33;;;;;;;0.33;65.58;100387.88;5007076;28;20144;-56
2022/04/28 11:59:41;;;;;;;16.40;3.67;;;;;;;0.62;65.85;100431.47;5006680;28;20893;-56
2022/04/28 12:02:26;;;;;;;10.00;3.13;;;;;;;0.55;65.85;100424.41;5006146;28;20052;-56
2022/04/28 12:04:59;;;;;;;7.18;2.90;;;;;;;0.53;66.05;100431.25;5006568;28;20116;-55
2022/04/28 12:07:31;;;;;;;8.10;3.05;;;;;;;0.24;66.60;100408.19;5006621;28;20054;-56
2022/04/28 12:15:39;;;;;;;6.53;3.75;;;;;;;-0.13;68.86;100427.69;5006532;28;20222;-56
2022/04/28 12:21:02;;;;;;;8.90;3.60;;;;;;;-0.16;69.22;100437.88;5006503;28;20088;-56
2022/04/28 12:23:34;;;;;;;8.52;3.45;;;;;;;-0.38;69.61;100379.84;5006017;28;20113;-55
2022/04/28 12:26:07;;;;;;;6.57;3.47;;;;;;;-0.22;69.40;100424.84;5006718;28;20066;-55
2022/04/28 12:28:40;;;;;;;8.93;4.93;;;;;;;-0.17;69.39;100436.13;5005676;28;20116;-56
2022/04/28 12:31:11;;;;;;;10.15;5.40;;;;;;;-0.13;69.49;100432.81;5005988;28;20322;-56
2022/04/28 12:34:11;;;;;;;11.38;6.15;;;;;;;0.07;69.20;100440.22;5005624;28;20054;-55